sensor_id;sensor_type;location;lat;lon;timestamp;pressure;altitude;pressure_sealevel;temperature;humidity
20111;BME280;10216;42.658;23.248;2023-07-09T00:02:13;94158.91;;;17.64;69.70
20111;BME280;10216;42.658;23.248;2023-07-09T00:04:39;94166.47;;;17.66;69.09
20111;BME280;10216;42.658;23.248;2023-07-09T00:07:05;94160.28;;;17.67;70.94
20111;BME280;10216;42.658;23.248;2023-07-09T00:09:31;94161.22;;;17.52;69.85
20111;BME280;10216;42.658;23.248;2023-07-09T00:11:57;94156.19;;;17.44;71.89
20111;BME280;10216;42.658;23.248;2023-07-09T00:14:23;94155.63;;;17.49;70.63
20111;BME280;10216;42.658;23.248;2023-07-09T00:16:48;94157.22;;;17.50;70.33
20111;BME280;10216;42.658;23.248;2023-07-09T00:19:20;94156.53;;;17.28;68.55
20111;BME280;10216;42.658;23.248;2023-07-09T00:21:47;94150.16;;;17.37;68.73
20111;BME280;10216;42.658;23.248;2023-07-09T00:24:14;94152.41;;;17.47;68.98
20111;BME280;10216;42.658;23.248;2023-07-09T00:26:40;94154.00;;;17.48;69.01
20111;BME280;10216;42.658;23.248;2023-07-09T00:29:10;94156.59;;;17.41;70.94
20111;BME280;10216;42.658;23.248;2023-07-09T00:31:36;94158.19;;;17.42;69.32
20111;BME280;10216;42.658;23.248;2023-07-09T00:34:06;94159.56;;;17.38;70.17
20111;BME280;10216;42.658;23.248;2023-07-09T00:36:33;94156.75;;;17.33;70.85
20111;BME280;10216;42.658;23.248;2023-07-09T00:38:59;94152.72;;;17.24;71.99
20111;BME280;10216;42.658;23.248;2023-07-09T00:41:32;94147.84;;;17.08;71.07
20111;BME280;10216;42.658;23.248;2023-07-09T00:44:23;94149.09;;;17.18;69.95
20111;BME280;10216;42.658;23.248;2023-07-09T00:49:24;94138.53;;;17.20;71.21
20111;BME280;10216;42.658;23.248;2023-07-09T00:51:52;94139.69;;;17.11;70.47
20111;BME280;10216;42.658;23.248;2023-07-09T00:56:49;94134.75;;;17.23;70.69
20111;BME280;10216;42.658;23.248;2023-07-09T00:59:19;94129.53;;;17.16;69.04
20111;BME280;10216;42.658;23.248;2023-07-09T01:01:46;94133.13;;;17.15;67.59
20111;BME280;10216;42.658;23.248;2023-07-09T01:04:15;94138.75;;;17.25;67.98
20111;BME280;10216;42.658;23.248;2023-07-09T01:06:50;94138.97;;;17.30;68.29
20111;BME280;10216;42.658;23.248;2023-07-09T01:09:16;94136.78;;;17.27;69.75
20111;BME280;10216;42.658;23.248;2023-07-09T01:11:42;94133.72;;;17.17;69.34
20111;BME280;10216;42.658;23.248;2023-07-09T01:14:10;94131.19;;;17.30;70.55
20111;BME280;10216;42.658;23.248;2023-07-09T01:17:00;94119.97;;;17.23;69.82
20111;BME280;10216;42.658;23.248;2023-07-09T01:19:29;94124.34;;;17.16;69.01
20111;BME280;10216;42.658;23.248;2023-07-09T01:21:57;94119.13;;;17.09;70.29
20111;BME280;10216;42.658;23.248;2023-07-09T01:27:15;94112.72;;;16.99;71.67
20111;BME280;10216;42.658;23.248;2023-07-09T01:29:42;94112.06;;;16.90;71.22
20111;BME280;10216;42.658;23.248;2023-07-09T01:32:08;94122.25;;;16.92;71.76
20111;BME280;10216;42.658;23.248;2023-07-09T01:34:35;94121.63;;;16.90;69.65
20111;BME280;10216;42.658;23.248;2023-07-09T01:37:00;94120.25;;;16.94;72.38
20111;BME280;10216;42.658;23.248;2023-07-09T01:39:26;94114.25;;;16.93;72.51
20111;BME280;10216;42.658;23.248;2023-07-09T01:41:53;94122.66;;;16.95;69.38
20111;BME280;10216;42.658;23.248;2023-07-09T01:44:19;94103.03;;;16.79;71.06
20111;BME280;10216;42.658;23.248;2023-07-09T01:46:44;94133.44;;;16.92;72.48
20111;BME280;10216;42.658;23.248;2023-07-09T01:49:11;94124.38;;;16.82;70.61
20111;BME280;10216;42.658;23.248;2023-07-09T01:51:36;94132.19;;;16.88;69.97
20111;BME280;10216;42.658;23.248;2023-07-09T01:54:02;94132.16;;;16.82;70.54
20111;BME280;10216;42.658;23.248;2023-07-09T01:56:28;94134.94;;;16.80;70.88
20111;BME280;10216;42.658;23.248;2023-07-09T01:58:54;94129.72;;;16.73;71.05
20111;BME280;10216;42.658;23.248;2023-07-09T02:01:29;94135.91;;;16.72;71.94
20111;BME280;10216;42.658;23.248;2023-07-09T02:03:54;94128.50;;;16.69;71.35
20111;BME280;10216;42.658;23.248;2023-07-09T02:06:20;94124.50;;;16.67;69.86
20111;BME280;10216;42.658;23.248;2023-07-09T02:08:49;94127.72;;;16.69;71.17
20111;BME280;10216;42.658;23.248;2023-07-09T02:11:15;94114.53;;;16.64;70.55
20111;BME280;10216;42.658;23.248;2023-07-09T02:13:40;94125.53;;;16.72;72.84
20111;BME280;10216;42.658;23.248;2023-07-09T02:16:06;94119.09;;;16.62;71.98
20111;BME280;10216;42.658;23.248;2023-07-09T02:18:31;94122.81;;;16.59;72.29
20111;BME280;10216;42.658;23.248;2023-07-09T02:20:57;94129.97;;;16.57;68.64
20111;BME280;10216;42.658;23.248;2023-07-09T02:23:28;94123.88;;;16.65;69.27
20111;BME280;10216;42.658;23.248;2023-07-09T02:25:54;94121.72;;;16.68;69.50
20111;BME280;10216;42.658;23.248;2023-07-09T02:28:19;94127.09;;;16.67;71.77
20111;BME280;10216;42.658;23.248;2023-07-09T02:30:45;94138.78;;;16.56;72.12
20111;BME280;10216;42.658;23.248;2023-07-09T02:33:10;94137.53;;;16.52;73.20
20111;BME280;10216;42.658;23.248;2023-07-09T02:35:36;94137.69;;;16.44;72.79
20111;BME280;10216;42.658;23.248;2023-07-09T02:38:03;94136.81;;;16.37;72.40
20111;BME280;10216;42.658;23.248;2023-07-09T02:40:29;94146.78;;;16.33;73.19
20111;BME280;10216;42.658;23.248;2023-07-09T02:42:54;94146.34;;;16.30;70.92
20111;BME280;10216;42.658;23.248;2023-07-09T02:45:20;94146.53;;;16.28;71.43
20111;BME280;10216;42.658;23.248;2023-07-09T02:47:45;94149.78;;;16.37;72.46
20111;BME280;10216;42.658;23.248;2023-07-09T02:50:11;94151.91;;;16.27;73.05
20111;BME280;10216;42.658;23.248;2023-07-09T02:52:37;94154.28;;;16.28;71.38
20111;BME280;10216;42.658;23.248;2023-07-09T02:55:02;94162.06;;;16.28;71.00
20111;BME280;10216;42.658;23.248;2023-07-09T02:57:28;94172.69;;;16.33;72.59
20111;BME280;10216;42.658;23.248;2023-07-09T02:59:53;94164.34;;;16.38;71.87
20111;BME280;10216;42.658;23.248;2023-07-09T03:02:19;94163.13;;;16.34;71.65
20111;BME280;10216;42.658;23.248;2023-07-09T03:04:44;94164.66;;;16.28;73.33
20111;BME280;10216;42.658;23.248;2023-07-09T03:07:10;94167.25;;;16.28;74.22
20111;BME280;10216;42.658;23.248;2023-07-09T03:09:35;94154.94;;;16.09;74.73
20111;BME280;10216;42.658;23.248;2023-07-09T03:12:00;94173.13;;;16.16;73.76
20111;BME280;10216;42.658;23.248;2023-07-09T03:14:26;94161.44;;;16.20;73.74
20111;BME280;10216;42.658;23.248;2023-07-09T03:16:51;94166.47;;;16.28;73.99
20111;BME280;10216;42.658;23.248;2023-07-09T03:19:17;94173.25;;;16.29;75.15
20111;BME280;10216;42.658;23.248;2023-07-09T03:21:42;94176.00;;;16.21;74.87
20111;BME280;10216;42.658;23.248;2023-07-09T03:24:07;94168.44;;;16.26;75.36
20111;BME280;10216;42.658;23.248;2023-07-09T03:26:34;94168.44;;;16.26;76.34
20111;BME280;10216;42.658;23.248;2023-07-09T03:28:59;94169.06;;;16.28;76.21
20111;BME280;10216;42.658;23.248;2023-07-09T03:31:25;94161.66;;;16.25;78.14
20111;BME280;10216;42.658;23.248;2023-07-09T03:33:51;94170.06;;;16.27;78.42
20111;BME280;10216;42.658;23.248;2023-07-09T03:36:18;94168.00;;;16.22;78.15
20111;BME280;10216;42.658;23.248;2023-07-09T03:38:47;94181.94;;;16.21;75.68
20111;BME280;10216;42.658;23.248;2023-07-09T03:41:13;94173.84;;;16.31;74.34
20111;BME280;10216;42.658;23.248;2023-07-09T03:43:38;94177.31;;;16.38;74.25
20111;BME280;10216;42.658;23.248;2023-07-09T03:46:04;94168.78;;;16.44;73.92
20111;BME280;10216;42.658;23.248;2023-07-09T03:48:30;94165.19;;;16.45;74.05
20111;BME280;10216;42.658;23.248;2023-07-09T03:50:55;94175.44;;;16.53;76.14
20111;BME280;10216;42.658;23.248;2023-07-09T03:53:21;94171.84;;;16.54;76.29
20111;BME280;10216;42.658;23.248;2023-07-09T03:55:50;94181.81;;;16.57;77.50
20111;BME280;10216;42.658;23.248;2023-07-09T03:58:16;94174.66;;;16.59;74.44
20111;BME280;10216;42.658;23.248;2023-07-09T04:00:41;94183.31;;;16.66;73.96
20111;BME280;10216;42.658;23.248;2023-07-09T04:03:07;94179.56;;;16.69;74.46
20111;BME280;10216;42.658;23.248;2023-07-09T04:05:33;94185.81;;;16.81;75.80
20111;BME280;10216;42.658;23.248;2023-07-09T04:07:59;94196.78;;;16.76;76.19
20111;BME280;10216;42.658;23.248;2023-07-09T04:10:24;94171.16;;;16.67;74.65
20111;BME280;10216;42.658;23.248;2023-07-09T04:12:49;94189.56;;;16.78;75.25
20111;BME280;10216;42.658;23.248;2023-07-09T04:15:15;94189.84;;;16.84;75.42
20111;BME280;10216;42.658;23.248;2023-07-09T04:17:41;94204.47;;;16.98;73.94
20111;BME280;10216;42.658;23.248;2023-07-09T04:20:08;94190.91;;;16.96;73.21
20111;BME280;10216;42.658;23.248;2023-07-09T04:22:35;94202.09;;;17.03;73.26
20111;BME280;10216;42.658;23.248;2023-07-09T04:25:01;94199.38;;;17.11;73.69
20111;BME280;10216;42.658;23.248;2023-07-09T04:27:31;94203.97;;;17.15;75.20
20111;BME280;10216;42.658;23.248;2023-07-09T04:29:56;94208.16;;;17.16;72.35
20111;BME280;10216;42.658;23.248;2023-07-09T04:32:22;94204.06;;;17.29;73.76
20111;BME280;10216;42.658;23.248;2023-07-09T04:34:48;94206.06;;;17.33;75.19
20111;BME280;10216;42.658;23.248;2023-07-09T04:37:14;94213.88;;;17.40;76.00
20111;BME280;10216;42.658;23.248;2023-07-09T04:39:42;94214.66;;;17.34;76.66
20111;BME280;10216;42.658;23.248;2023-07-09T04:42:11;94207.50;;;17.42;73.88
20111;BME280;10216;42.658;23.248;2023-07-09T04:44:37;94213.13;;;17.52;70.82
20111;BME280;10216;42.658;23.248;2023-07-09T04:47:02;94213.81;;;17.61;71.57
20111;BME280;10216;42.658;23.248;2023-07-09T04:49:28;94210.03;;;17.70;68.56
20111;BME280;10216;42.658;23.248;2023-07-09T04:51:53;94213.06;;;17.80;67.65
20111;BME280;10216;42.658;23.248;2023-07-09T04:54:19;94206.50;;;17.91;68.69
20111;BME280;10216;42.658;23.248;2023-07-09T04:56:47;94211.72;;;18.04;68.64
20111;BME280;10216;42.658;23.248;2023-07-09T04:59:13;94209.56;;;18.08;68.46
20111;BME280;10216;42.658;23.248;2023-07-09T05:01:40;94208.13;;;18.05;70.89
20111;BME280;10216;42.658;23.248;2023-07-09T05:04:06;94212.97;;;18.15;71.68
20111;BME280;10216;42.658;23.248;2023-07-09T05:06:32;94212.16;;;18.08;68.67
20111;BME280;10216;42.658;23.248;2023-07-09T05:08:58;94226.97;;;18.20;69.33
20111;BME280;10216;42.658;23.248;2023-07-09T05:11:23;94219.38;;;18.25;69.78
20111;BME280;10216;42.658;23.248;2023-07-09T05:13:49;94208.16;;;18.18;69.66
20111;BME280;10216;42.658;23.248;2023-07-09T05:16:14;94226.97;;;18.33;69.65
20111;BME280;10216;42.658;23.248;2023-07-09T05:18:39;94234.38;;;18.37;69.12
20111;BME280;10216;42.658;23.248;2023-07-09T05:21:05;94231.56;;;18.38;70.96
20111;BME280;10216;42.658;23.248;2023-07-09T05:23:30;94230.75;;;18.38;69.24
20111;BME280;10216;42.658;23.248;2023-07-09T05:26:00;94234.97;;;18.39;68.37
20111;BME280;10216;42.658;23.248;2023-07-09T05:28:27;94244.78;;;18.50;67.64
20111;BME280;10216;42.658;23.248;2023-07-09T05:30:52;94230.41;;;18.67;67.61
20111;BME280;10216;42.658;23.248;2023-07-09T05:33:18;94234.41;;;18.83;67.46
20111;BME280;10216;42.658;23.248;2023-07-09T05:35:44;94233.19;;;19.05;67.71
20111;BME280;10216;42.658;23.248;2023-07-09T05:38:10;94224.72;;;19.36;67.50
20111;BME280;10216;42.658;23.248;2023-07-09T05:40:35;94223.09;;;19.55;65.62
20111;BME280;10216;42.658;23.248;2023-07-09T05:43:01;94229.03;;;19.68;65.45
20111;BME280;10216;42.658;23.248;2023-07-09T05:45:26;94230.97;;;19.86;63.48
20111;BME280;10216;42.658;23.248;2023-07-09T05:47:51;94240.16;;;19.95;62.92
20111;BME280;10216;42.658;23.248;2023-07-09T05:50:17;94232.31;;;20.02;63.82
20111;BME280;10216;42.658;23.248;2023-07-09T05:52:42;94228.03;;;20.14;62.10
20111;BME280;10216;42.658;23.248;2023-07-09T05:55:08;94238.63;;;20.19;62.96
20111;BME280;10216;42.658;23.248;2023-07-09T05:57:33;94233.59;;;20.17;61.26
20111;BME280;10216;42.658;23.248;2023-07-09T05:59:59;94235.41;;;20.23;59.80
20111;BME280;10216;42.658;23.248;2023-07-09T06:02:24;94236.56;;;20.34;59.91
20111;BME280;10216;42.658;23.248;2023-07-09T06:04:49;94233.31;;;20.39;59.31
20111;BME280;10216;42.658;23.248;2023-07-09T06:07:15;94224.53;;;20.33;59.16
20111;BME280;10216;42.658;23.248;2023-07-09T06:09:41;94231.72;;;20.38;58.69
20111;BME280;10216;42.658;23.248;2023-07-09T06:12:07;94230.16;;;20.30;59.43
20111;BME280;10216;42.658;23.248;2023-07-09T06:14:33;94231.00;;;20.24;61.17
20111;BME280;10216;42.658;23.248;2023-07-09T06:16:59;94233.16;;;20.27;60.98
20111;BME280;10216;42.658;23.248;2023-07-09T06:19:25;94229.38;;;20.23;58.90
20111;BME280;10216;42.658;23.248;2023-07-09T06:21:50;94214.91;;;20.27;60.17
20111;BME280;10216;42.658;23.248;2023-07-09T06:24:16;94226.13;;;20.34;59.87
20111;BME280;10216;42.658;23.248;2023-07-09T06:26:41;94224.44;;;20.46;59.70
20111;BME280;10216;42.658;23.248;2023-07-09T06:29:07;94224.91;;;20.61;60.58
20111;BME280;10216;42.658;23.248;2023-07-09T06:31:32;94226.66;;;20.74;59.73
20111;BME280;10216;42.658;23.248;2023-07-09T06:33:58;94222.75;;;20.83;59.59
20111;BME280;10216;42.658;23.248;2023-07-09T06:36:23;94216.44;;;20.91;58.46
20111;BME280;10216;42.658;23.248;2023-07-09T06:38:48;94217.91;;;20.87;57.21
20111;BME280;10216;42.658;23.248;2023-07-09T06:41:14;94218.66;;;20.94;57.09
20111;BME280;10216;42.658;23.248;2023-07-09T06:43:40;94224.00;;;20.99;57.20
20111;BME280;10216;42.658;23.248;2023-07-09T06:46:08;94219.25;;;20.96;58.00
20111;BME280;10216;42.658;23.248;2023-07-09T06:48:35;94225.25;;;21.21;58.09
20111;BME280;10216;42.658;23.248;2023-07-09T06:51:00;94218.88;;;21.35;57.56
20111;BME280;10216;42.658;23.248;2023-07-09T06:53:27;94224.53;;;21.51;56.95
20111;BME280;10216;42.658;23.248;2023-07-09T06:55:53;94222.13;;;21.67;56.36
20111;BME280;10216;42.658;23.248;2023-07-09T06:58:21;94218.28;;;21.70;57.30
20111;BME280;10216;42.658;23.248;2023-07-09T07:00:49;94218.53;;;21.98;56.46
20111;BME280;10216;42.658;23.248;2023-07-09T07:03:15;94213.00;;;22.06;56.61
20111;BME280;10216;42.658;23.248;2023-07-09T07:05:45;94220.13;;;22.17;56.17
20111;BME280;10216;42.658;23.248;2023-07-09T07:08:14;94213.31;;;22.28;53.51
20111;BME280;10216;42.658;23.248;2023-07-09T07:10:40;94219.72;;;22.32;54.03
20111;BME280;10216;42.658;23.248;2023-07-09T07:13:06;94214.13;;;22.29;55.06
20111;BME280;10216;42.658;23.248;2023-07-09T07:15:31;94219.63;;;22.50;54.12
20111;BME280;10216;42.658;23.248;2023-07-09T07:17:57;94227.16;;;22.47;53.59
20111;BME280;10216;42.658;23.248;2023-07-09T07:20:23;94213.84;;;22.60;53.03
20111;BME280;10216;42.658;23.248;2023-07-09T07:22:49;94218.53;;;22.70;54.14
20111;BME280;10216;42.658;23.248;2023-07-09T07:25:16;94210.03;;;22.86;52.90
20111;BME280;10216;42.658;23.248;2023-07-09T07:27:42;94206.38;;;22.98;53.82
20111;BME280;10216;42.658;23.248;2023-07-09T07:30:08;94208.69;;;23.18;53.13
20111;BME280;10216;42.658;23.248;2023-07-09T07:32:35;94214.72;;;23.30;53.05
20111;BME280;10216;42.658;23.248;2023-07-09T07:35:02;94207.19;;;23.34;52.12
20111;BME280;10216;42.658;23.248;2023-07-09T07:37:27;94197.81;;;23.61;51.30
20111;BME280;10216;42.658;23.248;2023-07-09T07:39:53;94202.47;;;23.71;49.89
20111;BME280;10216;42.658;23.248;2023-07-09T07:42:18;94189.78;;;23.80;50.01
20111;BME280;10216;42.658;23.248;2023-07-09T07:44:45;94198.97;;;23.94;49.92
20111;BME280;10216;42.658;23.248;2023-07-09T07:47:10;94196.63;;;24.09;50.47
20111;BME280;10216;42.658;23.248;2023-07-09T07:49:37;94204.84;;;24.12;49.38
20111;BME280;10216;42.658;23.248;2023-07-09T07:52:03;94209.06;;;24.42;49.38
20111;BME280;10216;42.658;23.248;2023-07-09T07:54:29;94201.03;;;24.48;49.23
20111;BME280;10216;42.658;23.248;2023-07-09T07:56:55;94214.72;;;24.67;48.65
20111;BME280;10216;42.658;23.248;2023-07-09T07:59:20;94207.13;;;24.99;48.89
20111;BME280;10216;42.658;23.248;2023-07-09T08:01:46;94206.13;;;24.72;48.34
20111;BME280;10216;42.658;23.248;2023-07-09T08:04:11;94205.03;;;25.01;48.21
20111;BME280;10216;42.658;23.248;2023-07-09T08:06:37;94197.75;;;25.25;47.60
20111;BME280;10216;42.658;23.248;2023-07-09T08:09:03;94196.69;;;25.43;47.37
20111;BME280;10216;42.658;23.248;2023-07-09T08:11:28;94197.34;;;25.72;46.91
20111;BME280;10216;42.658;23.248;2023-07-09T08:13:55;94204.19;;;25.94;45.92
20111;BME280;10216;42.658;23.248;2023-07-09T08:16:20;94199.31;;;26.30;45.42
20111;BME280;10216;42.658;23.248;2023-07-09T08:18:46;94200.34;;;26.56;46.05
20111;BME280;10216;42.658;23.248;2023-07-09T08:21:11;94196.59;;;26.78;45.00
20111;BME280;10216;42.658;23.248;2023-07-09T08:23:37;94194.75;;;26.79;45.61
20111;BME280;10216;42.658;23.248;2023-07-09T08:26:03;94196.78;;;26.99;44.90
20111;BME280;10216;42.658;23.248;2023-07-09T08:28:30;94189.72;;;27.51;43.88
20111;BME280;10216;42.658;23.248;2023-07-09T08:30:56;94191.41;;;27.73;43.49
20111;BME280;10216;42.658;23.248;2023-07-09T08:33:22;94184.53;;;27.72;42.78
20111;BME280;10216;42.658;23.248;2023-07-09T08:35:52;94179.69;;;28.26;42.46
20111;BME280;10216;42.658;23.248;2023-07-09T08:38:17;94190.00;;;28.27;42.21
20111;BME280;10216;42.658;23.248;2023-07-09T08:41:08;94193.75;;;28.52;41.30
20111;BME280;10216;42.658;23.248;2023-07-09T08:49:19;94198.97;;;29.63;39.11
20111;BME280;10216;42.658;23.248;2023-07-09T08:51:47;94190.88;;;30.09;39.32
20111;BME280;10216;42.658;23.248;2023-07-09T08:54:21;94199.63;;;30.48;38.02
20111;BME280;10216;42.658;23.248;2023-07-09T08:56:49;94204.16;;;30.87;39.02
20111;BME280;10216;42.658;23.248;2023-07-09T08:59:15;94203.16;;;31.17;37.51
20111;BME280;10216;42.658;23.248;2023-07-09T09:01:50;94199.28;;;31.62;37.12
20111;BME280;10216;42.658;23.248;2023-07-09T09:04:27;94199.50;;;31.36;36.97
20111;BME280;10216;42.658;23.248;2023-07-09T09:09:40;94204.00;;;31.89;36.64
20111;BME280;10216;42.658;23.248;2023-07-09T09:12:14;94192.69;;;32.02;36.54
20111;BME280;10216;42.658;23.248;2023-07-09T09:14:47;94197.13;;;32.06;36.80
20111;BME280;10216;42.658;23.248;2023-07-09T09:17:17;94202.13;;;32.88;35.65
20111;BME280;10216;42.658;23.248;2023-07-09T09:19:51;94193.13;;;33.03;34.52
20111;BME280;10216;42.658;23.248;2023-07-09T09:22:22;94188.56;;;32.14;35.64
20111;BME280;10216;42.658;23.248;2023-07-09T09:27:20;94210.88;;;33.07;34.44
20111;BME280;10216;42.658;23.248;2023-07-09T09:29:45;94208.19;;;33.86;34.41
20111;BME280;10216;42.658;23.248;2023-07-09T09:32:31;94206.47;;;33.16;33.78
20111;BME280;10216;42.658;23.248;2023-07-09T09:35:14;94200.91;;;32.99;35.21
20111;BME280;10216;42.658;23.248;2023-07-09T09:37:40;94198.38;;;33.67;35.51
20111;BME280;10216;42.658;23.248;2023-07-09T09:40:08;94197.59;;;34.35;33.58
20111;BME280;10216;42.658;23.248;2023-07-09T09:42:34;94193.81;;;35.17;32.89
20111;BME280;10216;42.658;23.248;2023-07-09T09:45:00;94195.47;;;35.27;32.02
20111;BME280;10216;42.658;23.248;2023-07-09T09:47:27;94192.84;;;35.66;32.64
20111;BME280;10216;42.658;23.248;2023-07-09T09:49:55;94189.31;;;35.57;31.32
20111;BME280;10216;42.658;23.248;2023-07-09T09:52:27;94183.22;;;35.65;32.05
20111;BME280;10216;42.658;23.248;2023-07-09T09:54:56;94178.25;;;35.81;31.55
20111;BME280;10216;42.658;23.248;2023-07-09T09:57:27;94187.63;;;36.00;31.15
20111;BME280;10216;42.658;23.248;2023-07-09T09:59:56;94193.34;;;36.25;30.98
20111;BME280;10216;42.658;23.248;2023-07-09T10:02:23;94189.16;;;36.75;30.55
20111;BME280;10216;42.658;23.248;2023-07-09T10:04:50;94190.53;;;36.30;30.65
20111;BME280;10216;42.658;23.248;2023-07-09T10:07:41;94177.13;;;36.38;30.43
20111;BME280;10216;42.658;23.248;2023-07-09T10:10:20;94178.91;;;35.47;31.54
20111;BME280;10216;42.658;23.248;2023-07-09T10:15:59;94174.97;;;36.75;30.31
20111;BME280;10216;42.658;23.248;2023-07-09T10:18:41;94187.66;;;37.38;29.08
20111;BME280;10216;42.658;23.248;2023-07-09T10:21:35;94185.19;;;36.56;29.55
20111;BME280;10216;42.658;23.248;2023-07-09T10:27:03;94180.81;;;36.86;29.78
20111;BME280;10216;42.658;23.248;2023-07-09T10:38:32;94162.81;;;38.26;27.75
20111;BME280;10216;42.658;23.248;2023-07-09T10:41:02;94171.94;;;38.96;27.67
20111;BME280;10216;42.658;23.248;2023-07-09T10:43:57;94174.31;;;38.97;27.32
20111;BME280;10216;42.658;23.248;2023-07-09T10:46:26;94168.06;;;39.38;26.13
20111;BME280;10216;42.658;23.248;2023-07-09T10:48:54;94169.97;;;39.50;26.40
20111;BME280;10216;42.658;23.248;2023-07-09T10:53:58;94174.47;;;38.30;27.94
20111;BME280;10216;42.658;23.248;2023-07-09T10:56:27;94176.63;;;38.37;27.11
20111;BME280;10216;42.658;23.248;2023-07-09T11:01:42;94174.03;;;39.93;26.43
20111;BME280;10216;42.658;23.248;2023-07-09T11:04:31;94166.66;;;40.02;26.12
20111;BME280;10216;42.658;23.248;2023-07-09T11:07:00;94172.56;;;40.84;24.71
20111;BME280;10216;42.658;23.248;2023-07-09T11:09:41;94172.25;;;41.01;25.75
20111;BME280;10216;42.658;23.248;2023-07-09T11:12:14;94158.53;;;39.53;26.01
20111;BME280;10216;42.658;23.248;2023-07-09T11:14:47;94172.78;;;39.54;26.98
20111;BME280;10216;42.658;23.248;2023-07-09T11:17:18;94171.34;;;39.80;26.40
20111;BME280;10216;42.658;23.248;2023-07-09T11:20:07;94171.88;;;40.87;25.89
20111;BME280;10216;42.658;23.248;2023-07-09T11:22:40;94173.09;;;41.17;25.55
20111;BME280;10216;42.658;23.248;2023-07-09T11:25:07;94173.16;;;41.64;24.31
20111;BME280;10216;42.658;23.248;2023-07-09T11:27:33;94163.78;;;40.87;26.75
20111;BME280;10216;42.658;23.248;2023-07-09T11:30:15;94158.69;;;41.25;25.73
20111;BME280;10216;42.658;23.248;2023-07-09T11:32:47;94168.72;;;41.88;23.43
20111;BME280;10216;42.658;23.248;2023-07-09T11:35:30;94153.75;;;40.60;25.46
20111;BME280;10216;42.658;23.248;2023-07-09T11:38:18;94153.28;;;39.57;26.02
20111;BME280;10216;42.658;23.248;2023-07-09T11:40:52;94154.50;;;41.12;24.93
20111;BME280;10216;42.658;23.248;2023-07-09T11:43:34;94159.22;;;41.03;25.39
20111;BME280;10216;42.658;23.248;2023-07-09T11:46:07;94152.03;;;40.15;25.47
20111;BME280;10216;42.658;23.248;2023-07-09T11:48:36;94148.13;;;41.64;24.34
20111;BME280;10216;42.658;23.248;2023-07-09T11:51:09;94153.75;;;40.60;26.51
20111;BME280;10216;42.658;23.248;2023-07-09T11:53:47;94158.44;;;42.44;24.17
20111;BME280;10216;42.658;23.248;2023-07-09T11:56:18;94161.09;;;43.37;23.50
20111;BME280;10216;42.658;23.248;2023-07-09T11:58:57;94148.94;;;42.69;22.68
20111;BME280;10216;42.658;23.248;2023-07-09T12:04:04;94160.47;;;43.05;23.23
20111;BME280;10216;42.658;23.248;2023-07-09T12:06:32;94150.72;;;42.42;22.81
20111;BME280;10216;42.658;23.248;2023-07-09T12:08:58;94154.50;;;42.96;23.33
20111;BME280;10216;42.658;23.248;2023-07-09T12:11:29;94142.50;;;41.88;23.17
20111;BME280;10216;42.658;23.248;2023-07-09T12:14:05;94141.44;;;42.08;24.14
20111;BME280;10216;42.658;23.248;2023-07-09T12:16:34;94139.25;;;39.63;26.02
20111;BME280;10216;42.658;23.248;2023-07-09T12:19:00;94139.00;;;38.04;26.40
20111;BME280;10216;42.658;23.248;2023-07-09T12:21:26;94132.34;;;38.01;27.94
20111;BME280;10216;42.658;23.248;2023-07-09T12:23:55;94131.50;;;36.78;30.08
20111;BME280;10216;42.658;23.248;2023-07-09T12:26:23;94121.34;;;35.89;30.44
20111;BME280;10216;42.658;23.248;2023-07-09T12:28:53;94125.38;;;35.69;30.93
20111;BME280;10216;42.658;23.248;2023-07-09T12:31:26;94119.53;;;35.67;31.37
20111;BME280;10216;42.658;23.248;2023-07-09T12:33:53;94125.41;;;35.30;32.13
20111;BME280;10216;42.658;23.248;2023-07-09T12:36:19;94119.63;;;33.89;31.59
20111;BME280;10216;42.658;23.248;2023-07-09T12:38:48;94111.75;;;33.84;33.59
20111;BME280;10216;42.658;23.248;2023-07-09T12:41:24;94108.69;;;33.36;33.12
20111;BME280;10216;42.658;23.248;2023-07-09T12:43:52;94105.31;;;33.30;33.45
20111;BME280;10216;42.658;23.248;2023-07-09T12:46:18;94112.56;;;32.83;34.09
20111;BME280;10216;42.658;23.248;2023-07-09T12:48:45;94096.19;;;32.25;34.38
20111;BME280;10216;42.658;23.248;2023-07-09T12:51:15;94101.53;;;31.40;35.58
20111;BME280;10216;42.658;23.248;2023-07-09T12:53:41;94090.28;;;31.24;35.52
20111;BME280;10216;42.658;23.248;2023-07-09T12:56:11;94093.91;;;31.33;36.12
20111;BME280;10216;42.658;23.248;2023-07-09T12:58:38;94090.09;;;31.39;36.63
20111;BME280;10216;42.658;23.248;2023-07-09T13:01:08;94097.38;;;31.53;35.70
20111;BME280;10216;42.658;23.248;2023-07-09T13:03:38;94093.91;;;31.33;35.82
20111;BME280;10216;42.658;23.248;2023-07-09T13:06:23;94084.41;;;31.70;35.94
20111;BME280;10216;42.658;23.248;2023-07-09T13:08:56;94081.00;;;31.46;36.28
20111;BME280;10216;42.658;23.248;2023-07-09T13:11:22;94093.91;;;31.33;36.31
20111;BME280;10216;42.658;23.248;2023-07-09T13:14:03;94090.91;;;31.40;35.72
20111;BME280;10216;42.658;23.248;2023-07-09T13:16:29;94086.06;;;31.42;36.54
20111;BME280;10216;42.658;23.248;2023-07-09T13:18:54;94094.28;;;30.93;37.75
20111;BME280;10216;42.658;23.248;2023-07-09T13:21:21;94097.44;;;31.24;36.00
20111;BME280;10216;42.658;23.248;2023-07-09T13:23:48;94095.78;;;31.04;36.72
20111;BME280;10216;42.658;23.248;2023-07-09T13:26:14;94094.44;;;30.44;37.80
20111;BME280;10216;42.658;23.248;2023-07-09T13:28:42;94096.81;;;29.57;39.66
20111;BME280;10216;42.658;23.248;2023-07-09T13:31:14;94096.66;;;29.93;39.39
20111;BME280;10216;42.658;23.248;2023-07-09T13:33:44;94095.56;;;29.99;40.21
20111;BME280;10216;42.658;23.248;2023-07-09T13:36:10;94098.00;;;29.85;38.33
20111;BME280;10216;42.658;23.248;2023-07-09T13:38:36;94095.72;;;29.63;38.51